Time;durP1;ratioP1;P1;durP2;ratioP2;P2;SDS_P1;SDS_P2;PMS_P1;PMS_P2;Temp;Humidity;BMP_temperature;BMP_pressure;BME280_temperature;BME280_humidity;BME280_pressure;Samples;Min_cycle;Max_cycle;Signal;HPM_P1;HPM_P2
2022/05/27 00:01:49;;;;;;;16.67;3.80;;;14.60;99.90;;;;;;4967968;28;20030;-82
2022/05/27 00:04:15;;;;;;;16.90;4.63;;;14.60;99.90;;;;;;4979946;28;20081;-85
2022/05/27 00:06:41;;;;;;;16.15;3.97;;;14.50;99.90;;;;;;4983044;28;20049;-86
2022/05/27 00:09:07;;;;;;;16.85;3.95;;;14.50;99.90;;;;;;4964397;28;20117;-85
2022/05/27 00:11:40;;;;;;;14.50;3.45;;;14.50;99.90;;;;;;4985560;28;20122;-86
2022/05/27 00:14:15;;;;;;;14.03;3.67;;;14.40;99.90;;;;;;4975065;28;20165;-83
2022/05/27 00:16:41;;;;;;;19.48;3.67;;;14.30;99.90;;;;;;4970212;28;20204;-84
2022/05/27 00:19:07;;;;;;;15.25;3.75;;;14.30;99.90;;;;;;4967954;28;20285;-85
2022/05/27 00:21:35;;;;;;;16.58;3.60;;;14.20;99.90;;;;;;4980942;28;20045;-82
2022/05/27 00:24:01;;;;;;;15.75;3.40;;;14.30;99.90;;;;;;4978999;28;20128;-84
2022/05/27 00:26:27;;;;;;;13.73;3.80;;;14.20;99.90;;;;;;4984451;28;20123;-84
2022/05/27 00:28:53;;;;;;;16.25;3.33;;;14.20;99.90;;;;;;4976226;28;20454;-84
2022/05/27 00:31:20;;;;;;;13.73;3.67;;;14.10;99.90;;;;;;4946977;28;20058;-84
2022/05/27 00:33:50;;;;;;;15.80;4.00;;;14.20;99.90;;;;;;4966730;28;20042;-84
2022/05/27 00:36:19;;;;;;;16.40;3.60;;;14.20;99.90;;;;;;4968581;28;20118;-84
2022/05/27 00:38:45;;;;;;;14.13;3.30;;;14.10;99.90;;;;;;4964469;28;20386;-85
2022/05/27 00:41:13;;;;;;;14.20;4.00;;;14.10;99.90;;;;;;4971348;28;20053;-83
2022/05/27 00:43:41;;;;;;;16.20;3.47;;;14.10;99.90;;;;;;4976229;28;20209;-85
2022/05/27 00:46:16;;;;;;;12.07;3.33;;;14.00;99.90;;;;;;4970766;28;20042;-84
2022/05/27 00:48:45;;;;;;;16.08;3.70;;;14.00;99.90;;;;;;4968602;28;20046;-85
2022/05/27 00:51:19;;;;;;;14.20;3.45;;;14.00;99.90;;;;;;4975781;28;20049;-84
2022/05/27 00:54:04;;;;;;;15.93;3.88;;;14.00;99.90;;;;;;4988948;28;20034;-83
2022/05/27 00:56:41;;;;;;;16.42;3.92;;;13.90;99.90;;;;;;4980665;28;20766;-83
2022/05/27 00:59:45;;;;;;;14.30;3.67;;;13.90;99.90;;;;;;4950567;28;20054;-84
2022/05/27 01:02:11;;;;;;;14.25;3.33;;;13.90;99.90;;;;;;4952749;28;20038;-82
2022/05/27 01:04:37;;;;;;;14.13;3.33;;;13.80;99.90;;;;;;4922994;28;20062;-83
2022/05/27 01:07:05;;;;;;;14.35;3.80;;;13.70;99.90;;;;;;4949878;28;20130;-85
2022/05/27 01:09:37;;;;;;;17.15;3.50;;;13.40;99.90;;;;;;4950502;28;20057;-84
2022/05/27 01:12:31;;;;;;;12.43;3.23;;;13.70;99.90;;;;;;4934178;28;20050;-86
2022/05/27 01:15:13;;;;;;;35.65;4.65;;;13.70;99.90;;;;;;4957676;28;20146;-84
2022/05/27 01:18:00;;;;;;;16.92;3.42;;;13.70;99.90;;;;;;4948136;28;20049;-85
2022/05/27 01:20:30;;;;;;;15.50;3.40;;;13.60;99.90;;;;;;4969630;28;20109;-86
2022/05/27 01:23:26;;;;;;;13.65;3.17;;;13.50;99.90;;;;;;4929406;28;20043;-85
2022/05/27 01:26:17;;;;;;;12.35;2.95;;;13.60;99.90;;;;;;4957315;28;20045;-85
2022/05/27 01:28:46;;;;;;;14.57;3.50;;;;;;;;;;4948902;28;20039;-84
2022/05/27 01:31:37;;;;;;;15.43;3.50;;;13.60;99.90;;;;;;4935099;28;20057;-86
2022/05/27 01:34:21;;;;;;;16.60;3.70;;;12.60;99.90;;;;;;4953802;28;20454;-86
2022/05/27 01:37:02;;;;;;;16.00;3.20;;;13.50;99.90;;;;;;4958981;28;20568;-85
2022/05/27 01:39:31;;;;;;;15.90;3.13;;;;;;;;;;4959432;28;20117;-82
2022/05/27 01:42:20;;;;;;;15.20;3.67;;;13.40;99.90;;;;;;4932363;28;20043;-84
2022/05/27 01:44:46;;;;;;;12.57;2.90;;;;;;;;;;4954411;28;20047;-84
2022/05/27 01:47:26;;;;;;;14.85;3.35;;;13.30;99.90;;;;;;4930435;28;20046;-84
2022/05/27 01:50:15;;;;;;;15.85;3.40;;;13.30;99.90;;;;;;4955142;28;20145;-84
2022/05/27 01:52:57;;;;;;;13.57;3.53;;;13.30;99.90;;;;;;4945611;28;20396;-85
2022/05/27 01:56:03;;;;;;;15.65;3.38;;;13.20;99.90;;;;;;4937606;28;20045;-84
2022/05/27 01:58:45;;;;;;;17.60;3.15;;;13.20;99.90;;;;;;4951168;28;20038;-85
2022/05/27 02:01:26;;;;;;;15.30;3.60;;;13.10;99.90;;;;;;4960902;28;20046;-84
2022/05/27 02:04:18;;;;;;;15.27;3.40;;;13.10;99.90;;;;;;4945315;28;20117;-84
2022/05/27 02:06:56;;;;;;;13.13;3.03;;;13.10;99.90;;;;;;4951486;28;20038;-85
2022/05/27 02:09:34;;;;;;;13.20;2.92;;;13.00;99.90;;;;;;4953593;28;20113;-83
2022/05/27 02:12:06;;;;;;;12.50;3.70;;;13.00;99.90;;;;;;4932662;28;20081;-85
2022/05/27 02:14:44;;;;;;;14.07;2.77;;;13.00;99.90;;;;;;4967447;28;20042;-87
2022/05/27 02:17:24;;;;;;;12.77;2.92;;;12.90;99.90;;;;;;4968171;28;20294;-84
2022/05/27 02:19:52;;;;;;;10.75;2.47;;;12.80;99.90;;;;;;4969767;28;20061;-84
2022/05/27 02:22:30;;;;;;;13.85;3.08;;;12.80;99.90;;;;;;4937082;28;20039;-85
2022/05/27 02:25:09;;;;;;;10.95;2.55;;;12.80;99.90;;;;;;4953476;28;20536;-84
2022/05/27 02:27:52;;;;;;;11.15;2.40;;;12.70;99.90;;;;;;4935488;28;20043;-85
2022/05/27 02:30:22;;;;;;;16.95;3.47;;;12.70;99.90;;;;;;4948619;28;20070;-84
2022/05/27 02:35:44;;;;;;;12.85;2.90;;;12.60;99.90;;;;;;4948939;28;20047;-83
2022/05/27 02:38:11;;;;;;;14.18;3.58;;;12.60;99.90;;;;;;4936535;29;20046;-85
2022/05/27 02:40:48;;;;;;;10.88;2.50;;;12.70;99.90;;;;;;4950702;28;20050;-85
2022/05/27 02:43:20;;;;;;;13.63;2.65;;;12.60;99.90;;;;;;4937701;28;20070;-84
2022/05/27 02:45:55;;;;;;;15.18;3.00;;;12.60;99.90;;;;;;4950532;28;20062;-84
2022/05/27 02:48:39;;;;;;;12.27;2.53;;;12.50;99.90;;;;;;4970190;28;20069;-85
2022/05/27 02:51:07;;;;;;;13.43;2.63;;;11.20;99.90;;;;;;4968960;28;20404;-84
2022/05/27 02:53:44;;;;;;;16.35;3.40;;;12.50;99.90;;;;;;4967565;28;20090;-84
2022/05/27 02:56:39;;;;;;;12.90;2.80;;;12.50;99.90;;;;;;4950932;28;20035;-83
2022/05/27 02:59:19;;;;;;;11.35;3.05;;;12.40;99.90;;;;;;4943651;28;20090;-85
2022/05/27 03:01:53;;;;;;;15.25;2.80;;;12.40;99.90;;;;;;4957227;28;20172;-84
2022/05/27 03:04:20;;;;;;;12.57;2.58;;;12.40;99.90;;;;;;4928567;28;20150;-85
2022/05/27 03:07:18;;;;;;;14.23;3.15;;;12.30;99.90;;;;;;4931280;28;20581;-85
2022/05/27 03:10:34;;;;;;;14.85;2.75;;;12.30;99.90;;;;;;4948614;28;20541;-85
2022/05/27 03:13:05;;;;;;;12.18;2.40;;;12.30;99.90;;;;;;4874210;29;20096;-84
2022/05/27 03:16:04;;;;;;;11.38;2.63;;;12.20;99.90;;;;;;4890219;29;20504;-85
2022/05/27 03:18:58;;;;;;;11.65;2.97;;;12.20;99.90;;;;;;4946583;28;20047;-86
2022/05/27 03:21:43;;;;;;;9.50;2.50;;;12.10;99.90;;;;;;4950734;28;20576;-83
2022/05/27 03:24:36;;;;;;;12.35;2.88;;;12.80;99.90;;;;;;4948097;28;20050;-84
2022/05/27 03:27:13;;;;;;;9.00;2.67;;;12.10;99.90;;;;;;4965460;28;20145;-85
2022/05/27 03:30:17;;;;;;;14.88;3.00;;;12.00;99.90;;;;;;4961497;28;20440;-84
2022/05/27 03:33:01;;;;;;;8.45;2.60;;;12.00;99.90;;;;;;4911279;28;20059;-85
2022/05/27 03:35:47;;;;;;;11.48;2.80;;;12.00;99.90;;;;;;4967263;28;20055;-84
2022/05/27 03:38:39;;;;;;;11.05;3.10;;;12.00;99.90;;;;;;4950371;28;20042;-84
2022/05/27 03:41:40;;;;;;;12.02;3.13;;;12.00;99.90;;;;;;4947120;28;20057;-84
2022/05/27 03:44:09;;;;;;;13.27;3.13;;;12.00;99.90;;;;;;4935363;28;20062;-84
2022/05/27 03:46:40;;;;;;;12.30;2.90;;;13.00;99.90;;;;;;4935438;28;20498;-84
2022/05/27 03:49:06;;;;;;;12.20;2.83;;;12.00;99.90;;;;;;4930203;28;20035;-84
2022/05/27 03:51:37;;;;;;;13.93;3.05;;;12.00;99.90;;;;;;4951715;28;20489;-84
2022/05/27 03:54:09;;;;;;;14.32;2.95;;;12.10;99.90;;;;;;4935187;28;20632;-84
2022/05/27 03:56:41;;;;;;;12.35;3.08;;;12.10;99.90;;;;;;4966740;28;20561;-84
2022/05/27 03:59:09;;;;;;;9.77;2.53;;;12.00;99.90;;;;;;4961766;28;20034;-84
2022/05/27 04:01:39;;;;;;;13.52;2.95;;;12.00;99.90;;;;;;4951369;28;20505;-85
2022/05/27 04:04:16;;;;;;;10.18;2.75;;;12.10;99.90;;;;;;4916721;28;1156328;-85
2022/05/27 04:06:46;;;;;;;16.73;3.00;;;12.10;99.90;;;;;;4965277;28;20130;-84
2022/05/27 04:09:15;;;;;;;12.82;3.38;;;12.10;99.90;;;;;;4935610;28;20541;-84
2022/05/27 04:11:42;;;;;;;13.93;3.17;;;12.20;99.90;;;;;;4943282;28;20414;-84
2022/05/27 04:14:09;;;;;;;15.10;3.20;;;12.20;99.90;;;;;;4939935;28;20191;-84
2022/05/27 04:16:37;;;;;;;14.73;3.00;;;12.20;99.90;;;;;;4935642;28;20031;-84
2022/05/27 04:19:03;;;;;;;12.45;2.88;;;12.20;99.90;;;;;;4950651;28;20035;-83
2022/05/27 04:21:33;;;;;;;13.80;3.65;;;12.20;99.90;;;;;;4959372;28;20177;-85
2022/05/27 04:23:59;;;;;;;9.77;2.60;;;12.20;99.90;;;;;;4930921;28;20035;-84
2022/05/27 04:26:25;;;;;;;12.35;2.78;;;12.30;99.90;;;;;;4937059;28;20057;-85
2022/05/27 04:28:51;;;;;;;13.50;3.05;;;12.20;99.90;;;;;;4970026;28;20038;-85
2022/05/27 04:31:17;;;;;;;10.18;2.70;;;12.20;99.90;;;;;;4970583;28;20553;-85
2022/05/27 04:33:45;;;;;;;10.63;2.60;;;12.20;99.90;;;;;;4920459;28;20038;-85
2022/05/27 04:36:14;;;;;;;11.25;2.60;;;12.20;99.90;;;;;;4934880;28;20066;-85
2022/05/27 04:38:50;;;;;;;11.77;3.17;;;12.20;99.90;;;;;;4961675;28;20103;-84
2022/05/27 04:41:16;;;;;;;10.25;2.38;;;12.30;99.90;;;;;;4954390;28;20117;-83
2022/05/27 04:43:42;;;;;;;12.68;2.78;;;12.30;99.90;;;;;;4971069;28;20059;-84
2022/05/27 04:46:08;;;;;;;12.68;3.00;;;;;;;;;;4966065;28;20035;-84
2022/05/27 04:48:37;;;;;;;10.88;2.58;;;12.30;99.90;;;;;;4950256;28;20050;-86
2022/05/27 04:51:03;;;;;;;15.35;2.90;;;;;;;;;;4920278;28;20055;-84
2022/05/27 04:53:29;;;;;;;13.63;3.20;;;12.50;99.90;;;;;;4950156;28;20038;-83
2022/05/27 04:55:58;;;;;;;11.95;2.50;;;12.60;99.90;;;;;;4951698;28;20101;-84
2022/05/27 04:58:26;;;;;;;12.05;2.78;;;12.60;99.90;;;;;;4942805;28;20046;-84
2022/05/27 05:00:52;;;;;;;15.77;3.33;;;12.70;99.90;;;;;;4952477;28;20229;-84
2022/05/27 05:03:18;;;;;;;14.30;3.25;;;12.80;99.90;;;;;;4973918;28;20596;-85
2022/05/27 05:05:46;;;;;;;16.30;2.90;;;12.70;99.90;;;;;;4955387;28;20073;-85
2022/05/27 05:08:33;;;;;;;13.13;2.80;;;12.80;99.90;;;;;;4966150;28;20584;-84
2022/05/27 05:11:08;;;;;;;18.42;2.83;;;12.70;99.90;;;;;;4965266;28;20042;-85
2022/05/27 05:13:36;;;;;;;10.90;2.50;;;12.60;99.90;;;;;;4954129;28;20045;-86
2022/05/27 05:16:04;;;;;;;12.38;3.00;;;12.60;99.90;;;;;;4967290;28;20465;-85
2022/05/27 05:18:30;;;;;;;13.18;3.15;;;12.60;99.90;;;;;;4959321;28;20041;-84
2022/05/27 05:21:01;;;;;;;14.15;3.10;;;12.60;99.90;;;;;;4952756;28;20547;-85
2022/05/27 05:23:31;;;;;;;11.00;3.17;;;12.70;99.90;;;;;;4950879;28;20061;-85
2022/05/27 05:25:57;;;;;;;15.43;3.38;;;12.70;99.90;;;;;;4968662;28;20486;-84
2022/05/27 05:28:23;;;;;;;13.98;3.67;;;12.70;99.90;;;;;;4949421;28;20047;-88
2022/05/27 05:30:52;;;;;;;12.77;3.05;;;;;;;;;;4988046;28;20065;-86
2022/05/27 05:33:21;;;;;;;13.50;2.95;;;12.80;99.90;;;;;;4947474;28;20121;-83
2022/05/27 05:35:46;;;;;;;14.77;2.83;;;12.70;99.90;;;;;;4960074;28;20127;-85
2022/05/27 05:38:15;;;;;;;11.50;2.65;;;12.80;99.90;;;;;;4985128;28;20073;-84
2022/05/27 05:40:41;;;;;;;14.48;2.95;;;12.70;99.90;;;;;;4955826;28;20080;-84
2022/05/27 05:43:07;;;;;;;13.45;2.97;;;12.80;99.90;;;;;;4983493;28;20031;-86
2022/05/27 05:45:33;;;;;;;12.50;3.08;;;12.70;99.90;;;;;;4981169;28;20081;-84
2022/05/27 05:48:00;;;;;;;14.30;3.08;;;12.70;99.90;;;;;;4949434;28;20383;-85
2022/05/27 05:50:27;;;;;;;10.80;2.67;;;;;;;;;;4969072;28;20093;-87
2022/05/27 05:52:54;;;;;;;15.98;3.90;;;12.70;99.90;;;;;;4948818;28;20169;-84
2022/05/27 05:55:20;;;;;;;14.00;2.85;;;;;;;;;;4966491;28;20126;-86
2022/05/27 05:57:51;;;;;;;15.98;3.70;;;13.00;99.90;;;;;;4949879;28;20105;-84
2022/05/27 06:00:23;;;;;;;12.18;2.80;;;13.10;99.90;;;;;;4966979;28;20074;-85
2022/05/27 06:02:55;;;;;;;13.88;3.67;;;13.30;99.90;;;;;;4979505;28;20078;-84
2022/05/27 06:05:24;;;;;;;13.60;3.30;;;13.20;99.90;;;;;;4935136;28;20055;-85
2022/05/27 06:07:52;;;;;;;16.33;3.05;;;13.40;99.90;;;;;;4946962;28;20868;-87
2022/05/27 06:10:19;;;;;;;11.25;2.90;;;13.40;99.90;;;;;;4950211;28;20050;-86
2022/05/27 06:12:46;;;;;;;12.48;3.00;;;;;;;;;;4945779;28;20070;-83
2022/05/27 06:15:20;;;;;;;13.18;2.72;;;13.60;99.90;;;;;;4950409;28;20051;-84
2022/05/27 06:18:04;;;;;;;13.55;2.72;;;13.70;99.90;;;;;;4948604;28;20469;-86
2022/05/27 06:20:37;;;;;;;11.38;2.60;;;13.80;99.90;;;;;;4967011;28;20070;-83
2022/05/27 06:23:04;;;;;;;14.05;3.25;;;13.70;99.90;;;;;;4942561;28;20043;-84
2022/05/27 06:25:30;;;;;;;13.88;3.63;;;13.60;99.90;;;;;;4929941;28;20392;-84
2022/05/27 06:34:23;;;;;;;13.82;3.35;;;13.60;99.90;;;;;;4952959;28;20049;-84
2022/05/27 06:36:13;;;;;;;14.50;3.47;;;13.90;99.90;;;;;;4949180;28;20047;-85
2022/05/27 06:38:39;;;;;;;14.52;3.30;;;13.90;99.90;;;;;;4959817;28;20035;-85
2022/05/27 06:41:17;;;;;;;15.20;2.78;;;13.90;99.90;;;;;;4962199;28;20180;-84
2022/05/27 06:43:44;;;;;;;14.93;3.05;;;13.90;99.90;;;;;;4937134;28;20064;-86
2022/05/27 06:46:10;;;;;;;15.55;3.33;;;13.90;99.90;;;;;;4943319;28;20101;-85
2022/05/27 06:48:38;;;;;;;12.88;2.92;;;13.80;99.90;;;;;;4958345;28;20521;-85
2022/05/27 06:51:09;;;;;;;10.13;2.95;;;13.70;99.90;;;;;;4961148;28;20047;-84
2022/05/27 06:53:35;;;;;;;13.55;3.00;;;13.80;99.90;;;;;;4930326;28;20923;-85
2022/05/27 06:56:04;;;;;;;15.60;4.20;;;13.70;99.90;;;;;;4931286;28;20047;-85
2022/05/27 06:58:33;;;;;;;12.88;2.92;;;13.70;99.90;;;;;;4966424;28;20108;-85
2022/05/27 07:01:00;;;;;;;17.05;4.60;;;13.70;99.90;;;;;;4939574;28;20050;-84
2022/05/27 07:03:28;;;;;;;13.15;3.33;;;;;;;;;;4944882;28;20054;-85
2022/05/27 07:05:54;;;;;;;15.15;3.00;;;13.90;99.90;;;;;;4971438;28;20057;-85
2022/05/27 07:08:32;;;;;;;12.85;3.00;;;13.90;99.90;;;;;;4967442;28;20478;-85
2022/05/27 07:10:58;;;;;;;16.42;3.55;;;12.90;99.90;;;;;;4967225;28;20077;-88
2022/05/27 07:13:26;;;;;;;14.52;2.88;;;13.70;99.90;;;;;;4983932;28;20515;-84
2022/05/27 07:16:00;;;;;;;10.48;2.58;;;13.70;99.90;;;;;;4972604;28;20053;-83
2022/05/27 07:18:25;;;;;;;11.38;2.75;;;14.40;99.90;;;;;;4986550;28;20076;-83
2022/05/27 07:21:02;;;;;;;11.98;2.90;;;13.80;99.90;;;;;;4971802;28;20571;-84
2022/05/27 07:23:27;;;;;;;16.10;3.17;;;13.90;99.90;;;;;;4985308;28;20057;-85
2022/05/27 07:25:56;;;;;;;13.88;2.58;;;14.00;99.90;;;;;;4986637;28;20042;-85
2022/05/27 07:28:22;;;;;;;12.07;2.75;;;14.10;99.90;;;;;;4984037;28;20615;-84
2022/05/27 07:30:48;;;;;;;13.70;3.10;;;14.20;99.90;;;;;;4968932;28;20113;-86
2022/05/27 07:33:17;;;;;;;11.25;2.88;;;14.20;99.90;;;;;;4990681;28;20117;-84
2022/05/27 07:35:43;;;;;;;10.88;2.85;;;14.30;99.90;;;;;;4980856;28;20117;-84
2022/05/27 07:38:23;;;;;;;13.70;2.97;;;14.50;99.90;;;;;;4947915;28;20059;-85
2022/05/27 07:40:52;;;;;;;14.25;2.90;;;14.60;99.90;;;;;;4960511;28;20042;-84
2022/05/27 07:43:25;;;;;;;;;;;14.60;99.90;;;;;;4953809;28;20034;-85
2022/05/27 07:45:51;;;;;;;13.43;3.03;;;14.40;99.90;;;;;;4982053;28;20392;-84
2022/05/27 07:48:19;;;;;;;12.77;2.72;;;14.40;99.90;;;;;;4969882;28;20677;-84
2022/05/27 07:50:48;;;;;;;12.45;3.03;;;14.50;99.90;;;;;;4972300;28;20198;-86
2022/05/27 07:53:19;;;;;;;12.73;3.10;;;14.40;99.90;;;;;;4956091;28;20145;-86
2022/05/27 07:55:45;;;;;;;14.27;3.08;;;15.50;99.90;;;;;;4973350;28;20031;-84
2022/05/27 07:58:11;;;;;;;11.68;2.72;;;14.50;99.90;;;;;;4976120;28;20093;-85
2022/05/27 08:00:38;;;;;;;13.68;2.90;;;14.50;99.90;;;;;;4965139;28;20441;-85
2022/05/27 08:03:05;;;;;;;12.65;3.03;;;14.40;99.90;;;;;;4950951;28;20050;-84
2022/05/27 08:05:37;;;;;;;13.10;3.20;;;14.20;99.90;;;;;;4982355;28;20058;-86
2022/05/27 08:08:19;;;;;;;11.60;2.93;;;14.20;99.90;;;;;;4952767;28;20050;-85
2022/05/27 08:10:46;;;;;;;12.63;2.85;;;14.30;99.90;;;;;;4989276;28;20038;-85
2022/05/27 08:13:14;;;;;;;12.43;2.75;;;14.40;99.90;;;;;;4962066;28;20042;-84
2022/05/27 08:15:43;;;;;;;15.35;3.10;;;15.30;99.90;;;;;;4964825;28;20047;-85
2022/05/27 08:18:12;;;;;;;10.93;2.70;;;14.80;99.90;;;;;;4995357;28;20061;-85
2022/05/27 08:20:41;;;;;;;14.98;3.20;;;14.90;99.90;;;;;;4985996;28;20046;-86
2022/05/27 08:23:19;;;;;;;10.68;2.83;;;14.80;99.90;;;;;;4968120;28;20050;-86
2022/05/27 08:25:45;;;;;;;12.00;2.88;;;15.00;99.90;;;;;;4938789;28;20042;-84
2022/05/27 08:28:16;;;;;;;10.07;2.72;;;15.00;99.90;;;;;;4965496;28;20043;-84
2022/05/27 08:30:42;;;;;;;11.57;2.50;;;;;;;;;;4977184;28;20115;-85
2022/05/27 08:33:11;;;;;;;14.40;3.25;;;14.70;99.90;;;;;;4967009;28;20077;-84
2022/05/27 08:38:27;;;;;;;11.60;2.38;;;14.30;99.90;;;;;;4957605;28;20378;-85
2022/05/27 08:41:01;;;;;;;13.27;2.97;;;14.50;99.90;;;;;;4952418;28;20038;-84
2022/05/27 08:43:50;;;;;;;14.60;3.08;;;14.80;99.90;;;;;;4967752;28;20521;-84
2022/05/27 08:46:38;;;;;;;11.10;2.67;;;14.90;99.90;;;;;;4965224;28;20089;-84
2022/05/27 08:49:12;;;;;;;9.32;2.20;;;15.10;99.90;;;;;;4987314;28;20045;-86
2022/05/27 08:52:12;;;;;;;12.63;2.70;;;15.00;99.90;;;;;;4956288;28;20117;-85
2022/05/27 08:54:49;;;;;;;11.18;2.70;;;14.90;99.90;;;;;;4942626;28;20073;-85
2022/05/27 09:00:30;;;;;;;11.10;2.92;;;14.40;99.90;;;;;;4961916;28;20137;-85
2022/05/27 09:03:07;;;;;;;11.25;2.67;;;14.80;99.90;;;;;;4955000;28;20064;-84
2022/05/27 09:06:03;;;;;;;11.55;3.08;;;16.50;99.90;;;;;;4960209;28;20054;-84
2022/05/27 09:08:35;;;;;;;13.48;2.80;;;15.20;99.90;;;;;;4974773;28;20058;-85
2022/05/27 09:11:30;;;;;;;11.13;2.58;;;15.00;99.90;;;;;;4957654;28;20050;-86
2022/05/27 09:14:14;;;;;;;11.35;2.50;;;15.00;99.90;;;;;;4943939;28;20047;-83
2022/05/27 09:17:02;;;;;;;14.90;3.28;;;14.90;99.90;;;;;;4967485;28;20068;-85
2022/05/27 09:19:48;;;;;;;13.10;2.72;;;14.80;99.90;;;;;;4966900;28;20252;-86
2022/05/27 09:22:15;;;;;;;14.95;2.92;;;;;;;;;;4976072;28;20053;-83
2022/05/27 09:25:24;;;;;;;18.17;3.67;;;14.50;99.90;;;;;;4960597;28;20065;-85
2022/05/27 09:28:10;;;;;;;13.20;3.28;;;14.30;99.90;;;;;;4947113;28;20313;-84
2022/05/27 09:30:36;;;;;;;14.55;3.05;;;14.90;99.90;;;;;;4968677;28;20101;-85
2022/05/27 09:33:04;;;;;;;13.27;2.85;;;14.80;99.90;;;;;;4961663;28;20061;-86
2022/05/27 09:36:11;;;;;;;14.68;3.65;;;14.90;99.90;;;;;;4980434;28;20133;-84
2022/05/27 09:38:55;;;;;;;21.00;3.25;;;15.00;99.90;;;;;;4959099;28;20109;-86
2022/05/27 09:41:56;;;;;;;12.18;2.90;;;14.80;99.90;;;;;;4976029;28;20077;-84
2022/05/27 09:44:55;;;;;;;15.88;3.30;;;14.70;99.90;;;;;;4909332;29;20096;-85
2022/05/27 09:47:32;;;;;;;13.93;3.25;;;14.70;99.90;;;;;;4951325;28;20559;-84
2022/05/27 09:50:21;;;;;;;12.60;2.90;;;15.00;99.90;;;;;;4969183;28;20055;-84
2022/05/27 09:52:49;;;;;;;13.18;2.78;;;15.30;99.90;;;;;;4973197;28;20058;-85
2022/05/27 09:55:32;;;;;;;14.77;3.08;;;14.60;99.90;;;;;;4969356;28;20038;-84
2022/05/27 09:58:14;;;;;;;15.77;2.92;;;15.10;99.90;;;;;;4964068;28;20125;-85
2022/05/27 10:00:50;;;;;;;15.45;3.40;;;14.90;99.90;;;;;;4946528;28;20497;-87
2022/05/27 10:03:33;;;;;;;13.73;3.80;;;15.30;99.90;;;;;;4994320;28;20051;-85
2022/05/27 10:06:02;;;;;;;;;;;15.30;99.90;;;;;;4989795;28;20054;-85
2022/05/27 10:08:32;;;;;;;12.65;2.85;;;;;;;;;;4989262;28;19918;-84
2022/05/27 10:11:16;;;;;;;11.20;3.10;;;15.00;99.90;;;;;;4951061;28;20046;-86
2022/05/27 10:14:10;;;;;;;14.75;3.55;;;16.70;99.90;;;;;;4964483;28;20043;-86
2022/05/27 10:16:39;;;;;;;13.63;3.00;;;15.10;99.90;;;;;;4980731;28;20046;-84
2022/05/27 10:19:05;;;;;;;12.48;2.53;;;;;;;;;;4978303;28;20241;-85
2022/05/27 10:21:47;;;;;;;14.82;3.03;;;14.80;99.90;;;;;;4962433;28;20601;-86
2022/05/27 10:24:39;;;;;;;14.53;3.33;;;14.10;99.90;;;;;;4971570;28;20053;-85
2022/05/27 10:27:20;;;;;;;15.20;3.35;;;15.20;99.90;;;;;;4956389;28;20286;-85
2022/05/27 10:29:58;;;;;;;13.45;3.20;;;15.10;99.90;;;;;;4968176;28;20061;-87
2022/05/27 10:32:53;;;;;;;12.98;3.03;;;15.00;99.90;;;;;;4984725;28;20049;-84
2022/05/27 10:35:29;;;;;;;14.48;3.08;;;15.10;99.90;;;;;;4974960;28;20531;-85
2022/05/27 10:38:07;;;;;;;12.80;3.03;;;14.90;99.90;;;;;;4970615;28;20584;-85
2022/05/27 10:40:46;;;;;;;15.45;3.15;;;15.00;99.90;;;;;;4982788;28;20124;-86
2022/05/27 10:43:30;;;;;;;13.38;2.88;;;14.50;99.90;;;;;;4948847;28;20548;-86
2022/05/27 10:46:04;;;;;;;15.85;3.70;;;14.90;99.90;;;;;;4981729;28;20085;-86
2022/05/27 10:48:57;;;;;;;10.98;2.78;;;14.90;99.90;;;;;;4965338;28;20055;-85
2022/05/27 10:51:56;;;;;;;15.73;3.17;;;14.70;99.90;;;;;;4975196;28;20589;-84
2022/05/27 10:54:44;;;;;;;15.07;3.13;;;15.10;99.90;;;;;;4944282;28;20406;-84
2022/05/27 11:03:41;;;;;;;12.65;2.83;;;15.10;99.90;;;;;;4980153;28;20042;-84
2022/05/27 11:06:21;;;;;;;14.97;2.90;;;13.80;99.90;;;;;;4982302;28;20480;-84
2022/05/27 11:09:30;;;;;;;12.63;3.03;;;15.50;99.90;;;;;;4980110;28;20937;-84
2022/05/27 11:12:19;;;;;;;15.32;3.58;;;15.40;99.90;;;;;;4953090;28;20062;-84
2022/05/27 11:15:13;;;;;;;12.02;2.47;;;15.30;99.90;;;;;;4961995;28;20517;-84
2022/05/27 11:17:48;;;;;;;10.75;2.70;;;15.30;99.90;;;;;;4967234;28;20054;-85
2022/05/27 11:20:25;;;;;;;13.75;3.20;;;15.40;99.90;;;;;;4962665;28;20039;-85
2022/05/27 11:23:00;;;;;;;16.73;3.22;;;15.60;99.90;;;;;;4966820;28;20046;-83
2022/05/27 11:26:10;;;;;;;11.93;2.75;;;15.60;99.90;;;;;;4983213;28;20059;-84
2022/05/27 11:28:40;;;;;;;16.95;3.53;;;15.50;99.90;;;;;;4959414;28;20047;-85
2022/05/27 11:31:27;;;;;;;15.98;3.08;;;15.30;99.90;;;;;;4968791;28;20126;-84
2022/05/27 11:34:08;;;;;;;12.73;2.80;;;15.40;99.90;;;;;;4967380;28;20043;-84
2022/05/27 11:36:45;;;;;;;15.70;2.92;;;15.30;99.90;;;;;;4963416;28;20074;-85
2022/05/27 11:39:58;;;;;;;13.93;3.00;;;15.50;99.90;;;;;;4967663;28;20552;-85
2022/05/27 11:43:12;;;;;;;15.32;2.97;;;15.20;99.90;;;;;;4968193;28;20118;-83
2022/05/27 11:45:52;;;;;;;15.45;3.22;;;15.00;99.90;;;;;;4924916;28;20039;-84
2022/05/27 11:48:50;;;;;;;12.10;3.03;;;15.00;99.90;;;;;;4935744;28;20055;-85
2022/05/27 11:51:39;;;;;;;13.15;3.20;;;14.80;99.90;;;;;;4935813;28;20082;-84
2022/05/27 11:54:30;;;;;;;13.15;2.80;;;14.80;99.90;;;;;;4955257;28;20504;-84
2022/05/27 11:57:29;;;;;;;10.82;2.80;;;14.90;99.90;;;;;;4954364;28;20142;-84
2022/05/27 12:00:07;;;;;;;12.55;2.88;;;14.80;99.90;;;;;;4970643;28;20047;-86
2022/05/27 12:02:45;;;;;;;15.00;3.67;;;14.70;99.90;;;;;;4962180;28;20047;-84
2022/05/27 12:05:49;;;;;;;17.05;3.38;;;14.70;99.90;;;;;;4990245;28;20526;-86
2022/05/27 12:08:46;;;;;;;13.55;2.92;;;14.80;99.90;;;;;;4929489;28;20047;-84
2022/05/27 12:11:29;;;;;;;12.45;2.80;;;14.80;99.90;;;;;;4950685;28;20134;-85
2022/05/27 12:14:07;;;;;;;;;;;14.60;99.90;;;;;;4963318;28;20580;-87
2022/05/27 12:16:38;;;;;;;12.50;3.13;;;14.60;99.90;;;;;;4983119;28;20016;-86
2022/05/27 12:19:13;;;;;;;17.38;3.15;;;14.40;99.90;;;;;;4965570;28;20480;-84
2022/05/27 12:22:06;;;;;;;11.02;2.70;;;14.30;99.90;;;;;;4980893;28;20039;-83
2022/05/27 12:24:40;;;;;;;11.30;2.55;;;14.40;99.90;;;;;;4966504;28;20134;-85
2022/05/27 12:27:12;;;;;;;16.05;2.97;;;14.60;99.90;;;;;;4965965;28;20093;-86
2022/05/27 12:29:40;;;;;;;11.23;2.80;;;14.60;99.90;;;;;;4985880;28;20121;-84
2022/05/27 12:32:08;;;;;;;12.73;3.00;;;14.70;99.90;;;;;;4960876;28;20053;-81
2022/05/27 12:34:43;;;;;;;14.10;2.97;;;14.60;99.90;;;;;;4947827;28;20478;-85
2022/05/27 12:37:28;;;;;;;12.05;2.60;;;15.50;99.90;;;;;;4962163;28;20039;-85
2022/05/27 12:40:29;;;;;;;16.15;3.90;;;14.50;99.90;;;;;;4968738;28;20046;-84
2022/05/27 12:43:21;;;;;;;15.80;3.67;;;14.60;99.90;;;;;;4962671;28;20118;-85
2022/05/27 12:45:56;;;;;;;16.77;3.47;;;15.10;99.90;;;;;;4959180;28;20035;-83
2022/05/27 12:48:44;;;;;;;10.55;2.53;;;15.60;99.90;;;;;;4954101;28;20082;-84
2022/05/27 12:51:21;;;;;;;13.20;2.95;;;16.10;99.90;;;;;;4964184;28;20521;-85
2022/05/27 12:53:53;;;;;;;16.67;3.17;;;16.20;99.90;;;;;;4944800;28;20098;-84
2022/05/27 13:02:14;;;;;;;14.63;3.67;;;15.00;99.90;;;;;;4959111;28;20038;-85
2022/05/27 13:04:58;;;;;;;14.68;3.38;;;14.70;99.90;;;;;;4968833;28;20078;-84
2022/05/27 13:07:33;;;;;;;14.75;3.47;;;14.70;99.90;;;;;;4970494;28;20050;-84
2022/05/27 13:10:17;;;;;;;13.95;3.05;;;14.70;99.90;;;;;;4984635;28;20049;-85
2022/05/27 13:12:53;;;;;;;12.63;2.67;;;14.70;99.90;;;;;;4963384;28;20455;-84
2022/05/27 13:15:48;;;;;;;11.80;2.80;;;14.60;99.90;;;;;;4969931;28;20038;-84
2022/05/27 13:18:54;;;;;;;;;;;;;;;;;;;;;
2022/05/27 13:21:41;;;;;;;11.70;2.67;;;14.90;99.90;;;;;;4964688;28;20046;-80
2022/05/27 13:24:32;;;;;;;13.38;3.17;;;15.10;99.90;;;;;;4981788;28;20069;-81
2022/05/27 13:27:00;;;;;;;16.38;3.17;;;15.50;99.90;;;;;;4971872;28;20140;-80
2022/05/27 13:29:33;;;;;;;13.13;2.75;;;15.20;99.90;;;;;;4956233;28;20186;-79
2022/05/27 13:32:17;;;;;;;12.02;2.33;;;15.40;99.90;;;;;;4951921;28;20053;-85
2022/05/27 13:35:16;;;;;;;10.57;2.72;;;15.40;99.90;;;;;;4972961;28;20082;-86
2022/05/27 13:37:58;;;;;;;16.55;3.40;;;15.30;99.90;;;;;;4970753;28;20096;-85
2022/05/27 13:40:35;;;;;;;9.95;2.40;;;15.10;99.90;;;;;;4962465;28;20186;-86
2022/05/27 13:43:37;;;;;;;15.40;2.80;;;14.90;99.90;;;;;;4974338;28;20120;-86
2022/05/27 13:46:25;;;;;;;11.73;3.03;;;14.80;99.90;;;;;;4950843;28;20509;-84
2022/05/27 13:49:07;;;;;;;12.32;2.95;;;15.00;99.90;;;;;;4981132;28;20045;-85
2022/05/27 13:51:43;;;;;;;12.25;2.72;;;14.90;99.90;;;;;;4954993;28;20080;-86
2022/05/27 13:54:17;;;;;;;13.05;3.25;;;14.90;99.90;;;;;;4968707;28;20156;-83
2022/05/27 13:57:00;;;;;;;20.33;3.38;;;14.80;99.90;;;;;;4969046;28;20116;-85
2022/05/27 13:59:48;;;;;;;14.00;3.00;;;15.00;99.90;;;;;;4971450;28;20050;-85